Time;durP1;ratioP1;P1;durP2;ratioP2;P2;SDS_P1;SDS_P2;PMS_P1;PMS_P2;Temp;Humidity;BMP_temperature;BMP_pressure;BME280_temperature;BME280_humidity;BME280_pressure;Samples;Min_cycle;Max_cycle;Signal;HPM_P1;HPM_P2
2022/12/16 00:01:04;;;;;;;370.42;344.27;;;-7.90;99.90;;;;;;5081543;28;20220;-84
2022/12/16 00:03:31;;;;;;;352.55;328.45;;;-8.00;99.90;;;;;;5081508;28;20223;-83
2022/12/16 00:05:58;;;;;;;323.77;306.10;;;-8.10;99.90;;;;;;5082288;28;20200;-83
2022/12/16 00:08:26;;;;;;;321.92;303.45;;;-8.00;99.90;;;;;;5082048;28;20579;-84
2022/12/16 00:10:58;;;;;;;329.90;310.48;;;-8.10;99.90;;;;;;5081665;28;20197;-83
2022/12/16 00:13:25;;;;;;;335.58;316.92;;;-8.00;99.90;;;;;;5081502;28;20208;-83
2022/12/16 00:15:52;;;;;;;342.20;321.90;;;-8.10;99.90;;;;;;5081226;28;20254;-83
2022/12/16 00:18:19;;;;;;;340.50;320.55;;;-8.00;99.90;;;;;;5081241;28;20216;-84
2022/12/16 00:20:46;;;;;;;341.38;321.23;;;-8.00;99.90;;;;;;5080925;28;20219;-83
2022/12/16 00:23:13;;;;;;;355.83;334.88;;;-8.00;99.90;;;;;;5081625;28;20216;-84
2022/12/16 00:25:43;;;;;;;345.50;324.83;;;-7.90;99.90;;;;;;5081031;28;20287;-84
2022/12/16 00:28:11;;;;;;;340.48;320.45;;;-7.90;99.90;;;;;;5080474;28;20653;-83
2022/12/16 00:30:38;;;;;;;327.05;308.48;;;-8.10;99.90;;;;;;5081958;28;20592;-83
2022/12/16 00:33:05;;;;;;;316.02;297.52;;;-8.10;99.90;;;;;;5080954;28;20240;-83
2022/12/16 00:35:32;;;;;;;319.50;300.98;;;-8.20;99.90;;;;;;5081256;28;20196;-84
2022/12/16 00:37:59;;;;;;;301.85;286.20;;;-8.40;99.90;;;;;;5080753;28;20197;-83
2022/12/16 00:40:26;;;;;;;298.60;281.90;;;-8.40;99.90;;;;;;5080534;28;20199;-84
2022/12/16 00:42:54;;;;;;;286.23;269.80;;;-8.50;99.90;;;;;;5081236;28;20360;-84
2022/12/16 00:45:21;;;;;;;285.02;269.58;;;-8.50;99.90;;;;;;5080512;28;20196;-84
2022/12/16 00:47:50;;;;;;;294.70;278.30;;;-8.50;99.90;;;;;;5081166;28;20196;-84
2022/12/16 00:50:17;;;;;;;296.02;279.60;;;-8.60;99.90;;;;;;5080711;28;20200;-83
2022/12/16 00:52:43;;;;;;;287.95;273.67;;;-8.50;99.90;;;;;;5080717;28;20213;-84
2022/12/16 00:55:10;;;;;;;301.23;286.13;;;-8.40;99.90;;;;;;5080728;28;20204;-83
2022/12/16 00:57:37;;;;;;;286.42;271.25;;;-8.40;99.90;;;;;;5079961;28;20207;-83
2022/12/16 01:00:08;;;;;;;290.27;275.27;;;-8.40;99.90;;;;;;5080902;28;20200;-83
2022/12/16 01:02:34;;;;;;;286.77;271.90;;;-8.50;99.90;;;;;;5080571;28;20278;-83
2022/12/16 01:05:01;;;;;;;292.08;274.52;;;-8.50;99.90;;;;;;5081001;28;20193;-84
2022/12/16 01:07:28;;;;;;;274.48;260.85;;;-8.50;99.90;;;;;;5080157;28;20192;-84
2022/12/16 01:09:55;;;;;;;285.95;270.30;;;-8.60;99.90;;;;;;5080834;28;20303;-83
2022/12/16 01:12:22;;;;;;;285.67;270.33;;;-8.60;99.90;;;;;;5079688;28;20219;-84
2022/12/16 01:14:49;;;;;;;300.00;285.02;;;-8.60;99.90;;;;;;5079649;28;20204;-83
2022/12/16 01:17:17;;;;;;;291.08;276.10;;;-8.50;99.90;;;;;;5079925;28;20191;-84
2022/12/16 01:19:44;;;;;;;288.90;272.85;;;-8.40;99.90;;;;;;5079832;28;20203;-83
2022/12/16 01:22:12;;;;;;;285.92;271.85;;;-8.50;99.90;;;;;;5080182;28;20223;-84
2022/12/16 01:24:39;;;;;;;295.38;278.58;;;-8.50;99.90;;;;;;5079873;28;20196;-83
2022/12/16 01:27:06;;;;;;;278.25;263.45;;;-8.60;99.90;;;;;;5079774;28;20207;-83
2022/12/16 01:29:33;;;;;;;294.15;278.30;;;-8.60;99.90;;;;;;5080302;28;20196;-83
2022/12/16 01:31:59;;;;;;;314.27;296.05;;;-8.60;99.90;;;;;;5083591;28;20717;-83
2022/12/16 01:34:28;;;;;;;308.88;292.20;;;-8.50;99.90;;;;;;5084208;28;20196;-84
2022/12/16 01:36:54;;;;;;;310.48;291.40;;;-8.40;99.90;;;;;;5084510;28;20211;-83
2022/12/16 01:39:21;;;;;;;321.25;305.33;;;-8.40;99.90;;;;;;5083345;28;20207;-83
2022/12/16 01:41:48;;;;;;;309.67;293.77;;;-8.30;99.90;;;;;;5083693;28;20231;-83
2022/12/16 01:44:16;;;;;;;313.13;296.00;;;-8.40;99.90;;;;;;5083218;28;20290;-83
2022/12/16 01:46:45;;;;;;;302.35;286.60;;;-8.50;99.90;;;;;;5083362;28;20200;-83
2022/12/16 01:49:19;;;;;;;293.10;277.85;;;-8.50;99.90;;;;;;5083198;28;20200;-84
2022/12/16 01:51:47;;;;;;;294.77;278.92;;;-8.50;99.90;;;;;;5083409;28;20216;-83
2022/12/16 01:54:18;;;;;;;297.45;281.58;;;-8.60;99.90;;;;;;5083503;28;20226;-83
2022/12/16 01:56:51;;;;;;;301.75;285.63;;;-8.60;99.90;;;;;;5083300;28;20196;-83
2022/12/16 01:59:19;;;;;;;295.15;278.75;;;-8.50;99.90;;;;;;5083411;28;20224;-83
2022/12/16 02:01:45;;;;;;;289.02;273.45;;;-8.50;99.90;;;;;;5083091;28;20220;-84
2022/12/16 02:04:13;;;;;;;276.83;261.50;;;-8.60;99.90;;;;;;5083452;28;20203;-84
2022/12/16 02:06:39;;;;;;;281.77;264.85;;;-8.60;99.90;;;;;;5082989;28;20556;-83
2022/12/16 02:09:10;;;;;;;276.95;262.00;;;-8.60;99.90;;;;;;5082937;28;20203;-83
2022/12/16 02:12:00;;;;;;;270.58;256.70;;;-8.70;99.90;;;;;;5082710;28;20220;-83
2022/12/16 02:14:45;;;;;;;271.35;256.55;;;-8.70;99.90;;;;;;5083353;28;20692;-84
2022/12/16 02:17:19;;;;;;;264.42;251.40;;;-8.80;99.90;;;;;;5083101;28;20219;-84
2022/12/16 02:20:10;;;;;;;262.98;249.10;;;-8.90;99.90;;;;;;5083573;28;20201;-84
2022/12/16 02:22:49;;;;;;;256.10;242.48;;;-8.90;99.90;;;;;;5082459;28;20229;-83
2022/12/16 02:25:39;;;;;;;239.18;226.80;;;-9.00;99.90;;;;;;5083461;28;20230;-84
2022/12/16 02:28:11;;;;;;;240.85;225.30;;;-9.10;99.90;;;;;;5082184;28;20196;-83
2022/12/16 02:30:54;;;;;;;242.18;228.52;;;-9.00;99.90;;;;;;5082454;28;20200;-83
2022/12/16 02:33:34;;;;;;;260.77;245.57;;;-9.10;99.90;;;;;;5082608;28;20211;-84
2022/12/16 02:36:11;;;;;;;258.38;245.38;;;-9.00;99.90;;;;;;5082996;28;20202;-83
2022/12/16 02:38:46;;;;;;;249.57;236.48;;;-9.10;99.90;;;;;;5082767;28;20196;-83
2022/12/16 02:41:17;;;;;;;294.90;277.42;;;-8.90;99.90;;;;;;5080996;28;20231;-83
2022/12/16 02:43:53;;;;;;;293.63;275.38;;;-8.80;99.90;;;;;;5082657;28;20196;-83
2022/12/16 02:46:24;;;;;;;275.10;260.45;;;-8.80;99.90;;;;;;5082426;28;20192;-83
2022/12/16 02:48:50;;;;;;;274.75;259.85;;;-8.80;99.90;;;;;;5082356;28;20207;-82
2022/12/16 02:51:18;;;;;;;261.08;247.48;;;-8.90;99.90;;;;;;5081795;28;20692;-83
2022/12/16 02:53:46;;;;;;;254.95;240.90;;;-8.90;99.90;;;;;;5082807;28;20208;-83
2022/12/16 02:56:23;;;;;;;247.43;233.68;;;-8.90;99.90;;;;;;5082024;28;20200;-83
2022/12/16 02:58:57;;;;;;;249.18;236.82;;;-9.10;99.90;;;;;;5081740;28;20203;-83
2022/12/16 03:01:33;;;;;;;260.55;245.20;;;-9.10;99.90;;;;;;5081785;28;20243;-83
2022/12/16 03:04:04;;;;;;;253.20;238.57;;;-9.10;99.90;;;;;;5082037;28;20200;-83
2022/12/16 03:06:33;;;;;;;251.50;237.13;;;-9.10;99.90;;;;;;5081319;28;20200;-83
2022/12/16 03:09:03;;;;;;;241.35;229.20;;;-9.10;99.90;;;;;;5081818;28;20200;-83
2022/12/16 03:11:31;;;;;;;233.90;221.68;;;-9.10;99.90;;;;;;5081436;28;20224;-83
2022/12/16 03:13:59;;;;;;;241.50;227.18;;;-9.00;99.90;;;;;;5080832;28;20192;-84
2022/12/16 03:16:31;;;;;;;267.27;252.15;;;-9.00;99.90;;;;;;5081910;28;20200;-83
2022/12/16 03:19:01;;;;;;;248.50;234.38;;;-8.90;99.90;;;;;;5081273;28;20211;-83
2022/12/16 03:21:32;;;;;;;264.23;249.93;;;-9.00;99.90;;;;;;5079798;28;20227;-83
2022/12/16 03:24:02;;;;;;;278.55;262.50;;;-9.00;99.90;;;;;;5080815;28;20200;-83
2022/12/16 03:26:33;;;;;;;265.92;252.23;;;-8.90;99.90;;;;;;5081026;28;20656;-83
2022/12/16 03:29:03;;;;;;;279.30;264.25;;;-8.90;99.90;;;;;;5080175;28;20193;-83
2022/12/16 03:31:39;;;;;;;273.25;258.90;;;-8.80;99.90;;;;;;5079991;28;20212;-83
2022/12/16 03:34:15;;;;;;;269.30;254.85;;;-8.80;99.90;;;;;;5081077;28;20207;-83
2022/12/16 03:36:49;;;;;;;276.40;261.75;;;-8.90;99.90;;;;;;5081221;28;20273;-82
2022/12/16 03:39:18;;;;;;;273.80;257.65;;;-8.70;99.90;;;;;;5081594;28;20199;-83
2022/12/16 03:41:47;;;;;;;266.83;251.43;;;-8.70;99.90;;;;;;5081034;28;20212;-83
2022/12/16 03:44:14;;;;;;;244.18;229.48;;;-8.90;99.90;;;;;;5081287;28;20582;-83
2022/12/16 03:46:42;;;;;;;256.05;240.98;;;-8.80;99.90;;;;;;5080875;28;20653;-83
2022/12/16 03:49:08;;;;;;;253.13;238.98;;;-9.00;99.90;;;;;;5080861;28;20657;-83
2022/12/16 03:51:35;;;;;;;244.77;229.75;;;-8.90;99.90;;;;;;5080131;28;20334;-83
2022/12/16 03:54:02;;;;;;;249.60;234.50;;;-9.10;99.90;;;;;;5080190;28;20196;-83
2022/12/16 03:56:29;;;;;;;247.05;233.20;;;-9.00;99.90;;;;;;5080968;28;20234;-82
2022/12/16 03:58:55;;;;;;;242.32;227.07;;;-9.10;99.90;;;;;;5080912;28;20203;-82
2022/12/16 04:01:23;;;;;;;229.27;216.68;;;-9.00;99.90;;;;;;5079014;28;20216;-83
2022/12/16 04:03:51;;;;;;;240.30;228.35;;;-9.10;99.90;;;;;;5080142;28;20222;-83
2022/12/16 04:06:17;;;;;;;238.93;226.98;;;-9.10;99.90;;;;;;5080320;28;20219;-83
2022/12/16 04:08:45;;;;;;;264.75;249.70;;;-9.10;99.90;;;;;;5080163;28;20196;-82
2022/12/16 04:25:01;;;;;;;219.38;206.00;;;-9.30;99.90;;;;;;5080116;28;20191;-83
2022/12/16 04:27:28;;;;;;;219.50;205.80;;;-9.30;99.90;;;;;;5079589;28;20204;-82
